createdAt,value
2022-11-29T00:01:11.620Z,9.20
2022-11-29T00:03:39.949Z,9.10
2022-11-29T00:06:09.752Z,9.20
2022-11-29T00:08:38.119Z,9.20
2022-11-29T00:11:07.065Z,9.20
2022-11-29T00:13:35.466Z,9.20
2022-11-29T00:16:04.716Z,9.20
2022-11-29T00:18:34.065Z,9.20
2022-11-29T00:21:07.327Z,9.10
2022-11-29T00:23:35.583Z,9.20
2022-11-29T00:26:07.530Z,9.20
2022-11-29T00:28:36.640Z,9.20
2022-11-29T00:31:15.244Z,9.20
2022-11-29T00:33:44.523Z,9.20
2022-11-29T00:36:12.824Z,9.10
2022-11-29T00:38:41.033Z,9.10
2022-11-29T00:41:09.130Z,9.10
2022-11-29T00:43:37.076Z,9.10
2022-11-29T00:46:05.789Z,9.10
2022-11-29T00:48:34.365Z,9.20
2022-11-29T00:51:04.036Z,9.20
2022-11-29T00:53:32.515Z,9.20
2022-11-29T00:56:00.408Z,9.20
2022-11-29T00:58:29.044Z,9.10
2022-11-29T01:00:57.517Z,9.20
2022-11-29T01:03:25.752Z,9.20
2022-11-29T01:05:53.608Z,9.20
2022-11-29T01:08:22.844Z,9.20
2022-11-29T01:10:50.742Z,9.20
2022-11-29T01:13:18.567Z,9.20
2022-11-29T01:15:46.431Z,9.20
2022-11-29T01:18:14.244Z,9.20
2022-11-29T01:20:42.155Z,9.20
2022-11-29T01:23:10.128Z,9.20
2022-11-29T01:25:39.316Z,9.20
2022-11-29T01:28:07.283Z,9.20
2022-11-29T01:30:35.142Z,9.20
2022-11-29T01:33:03.038Z,9.20
2022-11-29T01:35:30.880Z,9.20
2022-11-29T01:37:58.711Z,9.20
2022-11-29T01:40:26.619Z,9.20
2022-11-29T01:42:55.816Z,9.20
2022-11-29T01:45:25.492Z,9.20
2022-11-29T01:47:56.092Z,9.20
2022-11-29T01:50:24.197Z,9.10
2022-11-29T01:52:52.203Z,9.20
2022-11-29T01:55:20.474Z,9.10
2022-11-29T01:57:49.753Z,9.20
2022-11-29T02:00:21.006Z,9.10
2022-11-29T02:02:53.332Z,9.10
2022-11-29T02:05:22.418Z,9.10
2022-11-29T02:07:53.295Z,9.10
2022-11-29T02:10:23.747Z,9.10
2022-11-29T02:13:00.670Z,9.10
2022-11-29T02:15:42.542Z,9.10
2022-11-29T02:18:14.703Z,9.10
2022-11-29T02:21:13.767Z,9.10
2022-11-29T02:24:16.094Z,9.10
2022-11-29T02:27:13.041Z,9.10
2022-11-29T02:30:10.110Z,9.10
2022-11-29T02:33:06.833Z,9.10
2022-11-29T02:36:01.031Z,9.20
2022-11-29T02:38:59.734Z,9.10
2022-11-29T02:41:45.862Z,9.20
2022-11-29T02:44:35.925Z,9.20
2022-11-29T02:47:14.329Z,9.20
2022-11-29T02:50:10.217Z,9.10
2022-11-29T02:52:51.734Z,9.20
2022-11-29T02:55:25.849Z,9.20
2022-11-29T02:58:01.123Z,9.10
2022-11-29T03:00:29.923Z,9.10
2022-11-29T03:03:04.256Z,9.10
2022-11-29T03:05:42.911Z,9.10
2022-11-29T03:08:18.925Z,9.10
2022-11-29T03:10:57.161Z,9.10
2022-11-29T03:13:35.488Z,9.00
2022-11-29T03:16:15.408Z,9.00
2022-11-29T03:18:51.754Z,9.00
2022-11-29T03:21:32.946Z,9.00
2022-11-29T03:24:07.250Z,9.00
2022-11-29T03:26:40.096Z,9.00
2022-11-29T03:29:12.779Z,9.00
2022-11-29T03:31:46.341Z,9.10
2022-11-29T03:34:21.436Z,9.10
2022-11-29T03:36:57.320Z,9.10
2022-11-29T03:39:34.296Z,9.10
2022-11-29T03:42:08.177Z,9.10
2022-11-29T03:44:41.438Z,9.10
2022-11-29T03:47:13.644Z,9.10
2022-11-29T03:49:48.747Z,9.10
2022-11-29T03:52:24.895Z,9.10
2022-11-29T03:55:04.449Z,9.10
2022-11-29T03:57:35.950Z,9.10
2022-11-29T04:00:07.608Z,9.10
2022-11-29T04:03:08.611Z,9.10
2022-11-29T04:06:12.369Z,9.10
2022-11-29T04:09:29.386Z,9.10
2022-11-29T04:12:29.821Z,9.10
2022-11-29T04:15:30.525Z,9.10
2022-11-29T04:18:38.393Z,9.10
2022-11-29T04:21:32.992Z,9.10
2022-11-29T04:24:39.471Z,9.10
2022-11-29T04:27:35.927Z,9.10
2022-11-29T04:30:19.259Z,9.10
2022-11-29T04:33:22.908Z,9.10
2022-11-29T04:36:38.693Z,9.10
2022-11-29T04:39:31.304Z,9.10
2022-11-29T04:42:24.014Z,9.00
2022-11-29T04:45:21.722Z,9.00
2022-11-29T04:48:00.221Z,9.00
2022-11-29T04:50:42.239Z,9.00
2022-11-29T04:53:31.515Z,9.00
2022-11-29T04:56:11.316Z,9.00
2022-11-29T04:58:43.751Z,9.00
2022-11-29T05:01:26.474Z,8.90
2022-11-29T05:04:02.060Z,8.90
2022-11-29T05:06:38.704Z,8.90
2022-11-29T05:09:18.663Z,8.90
2022-11-29T05:11:57.425Z,9.00
2022-11-29T05:14:34.326Z,9.00
2022-11-29T05:17:25.705Z,9.00
2022-11-29T05:20:07.900Z,9.00
2022-11-29T05:22:46.886Z,9.00
2022-11-29T05:25:32.403Z,9.00
2022-11-29T05:28:10.155Z,9.00
2022-11-29T05:30:56.073Z,9.00
2022-11-29T05:33:48.859Z,8.90
2022-11-29T05:36:25.812Z,8.80
2022-11-29T05:39:08.370Z,8.70
2022-11-29T05:41:49.156Z,8.70
2022-11-29T05:44:24.819Z,8.80
2022-11-29T05:46:57.766Z,8.80
2022-11-29T05:49:38.249Z,8.80
2022-11-29T05:52:24.438Z,8.80
2022-11-29T05:55:11.064Z,8.80
2022-11-29T05:57:44.755Z,8.80
2022-11-29T06:00:16.803Z,8.80
2022-11-29T06:02:56.811Z,8.90
2022-11-29T06:05:33.059Z,8.80
2022-11-29T06:08:06.974Z,8.80
2022-11-29T06:10:39.870Z,8.80
2022-11-29T06:13:18.709Z,8.80
2022-11-29T06:16:10.943Z,8.80
2022-11-29T06:19:01.809Z,8.80
2022-11-29T06:21:40.167Z,8.70
2022-11-29T06:24:39.179Z,8.70
2022-11-29T06:27:33.189Z,8.70
2022-11-29T06:30:06.922Z,8.70
2022-11-29T06:32:43.996Z,8.70
2022-11-29T06:35:27.776Z,8.70
2022-11-29T06:38:01.463Z,8.70
2022-11-29T06:40:29.646Z,8.70
2022-11-29T06:42:57.496Z,8.70
2022-11-29T06:45:25.984Z,8.60
2022-11-29T06:47:59.606Z,8.60
2022-11-29T06:50:39.336Z,8.60
2022-11-29T06:53:17.041Z,8.60
2022-11-29T06:55:54.977Z,8.60
2022-11-29T06:58:37.263Z,8.60
2022-11-29T07:01:18.449Z,8.60
2022-11-29T07:04:05.538Z,8.60
2022-11-29T07:06:35.181Z,8.60
2022-11-29T07:09:14.309Z,8.60
2022-11-29T07:11:43.264Z,8.60
2022-11-29T07:14:11.828Z,8.50
2022-11-29T07:16:46.602Z,8.50
2022-11-29T07:19:24.867Z,8.50
2022-11-29T07:22:00.805Z,8.50
2022-11-29T07:24:54.075Z,8.40
2022-11-29T07:27:28.717Z,8.40
2022-11-29T07:30:11.671Z,8.40
2022-11-29T07:32:50.917Z,8.40
2022-11-29T07:35:29.869Z,8.40
2022-11-29T07:38:06.876Z,8.40
2022-11-29T07:40:43.787Z,8.40
2022-11-29T07:43:22.849Z,8.40
2022-11-29T07:45:51.518Z,8.50
2022-11-29T07:48:19.804Z,8.50
2022-11-29T07:50:48.370Z,8.50
2022-11-29T07:53:18.592Z,8.40
2022-11-29T07:55:49.143Z,8.50
2022-11-29T07:58:18.285Z,8.40
2022-11-29T08:00:46.785Z,8.40
2022-11-29T08:03:14.794Z,8.30
2022-11-29T08:05:47.225Z,8.30
2022-11-29T08:08:15.526Z,8.30
2022-11-29T08:10:43.634Z,8.30
2022-11-29T08:13:12.876Z,8.30
2022-11-29T08:15:45.473Z,8.30
2022-11-29T08:18:13.703Z,8.30
2022-11-29T08:20:42.242Z,8.30
2022-11-29T08:23:12.062Z,8.40
2022-11-29T08:25:40.218Z,8.40
2022-11-29T08:28:08.173Z,8.40
2022-11-29T08:30:37.540Z,8.40
2022-11-29T08:33:05.370Z,8.40
2022-11-29T08:35:35.223Z,8.50
2022-11-29T08:38:03.840Z,8.50
2022-11-29T08:40:31.868Z,8.50
2022-11-29T08:42:59.820Z,8.50
2022-11-29T08:45:27.773Z,8.50
2022-11-29T08:47:57.327Z,8.50
2022-11-29T08:50:25.628Z,8.50
2022-11-29T08:53:10.984Z,8.60
2022-11-29T08:55:42.610Z,8.60
2022-11-29T08:58:12.691Z,8.60
2022-11-29T09:00:42.303Z,8.50
2022-11-29T09:03:29.205Z,8.50
2022-11-29T09:05:57.642Z,8.50
2022-11-29T09:08:25.717Z,8.50
2022-11-29T09:10:53.565Z,8.50
2022-11-29T09:13:21.959Z,8.50
2022-11-29T09:15:49.930Z,8.50
2022-11-29T09:18:19.290Z,8.50
2022-11-29T09:20:47.209Z,8.50
2022-11-29T09:23:15.125Z,8.50
2022-11-29T09:25:48.356Z,8.50
2022-11-29T09:28:16.483Z,8.50
2022-11-29T09:30:44.314Z,8.50
2022-11-29T09:33:12.172Z,8.60
2022-11-29T09:35:41.385Z,8.50
2022-11-29T09:38:11.548Z,8.60
2022-11-29T09:40:43.540Z,8.60
2022-11-29T09:43:23.101Z,8.60
2022-11-29T09:45:57.727Z,8.60
2022-11-29T09:48:43.092Z,8.70
2022-11-29T09:51:24.093Z,8.70
2022-11-29T09:54:09.967Z,8.70
2022-11-29T09:56:42.512Z,8.80
2022-11-29T09:59:15.460Z,8.80
2022-11-29T10:01:47.189Z,8.80
2022-11-29T10:04:20.076Z,8.80
2022-11-29T10:06:57.718Z,8.80
2022-11-29T10:09:33.732Z,8.80
2022-11-29T10:12:12.689Z,8.80
2022-11-29T10:14:45.991Z,8.80
2022-11-29T10:17:25.767Z,8.80
2022-11-29T10:19:57.626Z,8.90
2022-11-29T10:22:36.573Z,8.90
2022-11-29T10:25:07.259Z,8.90
2022-11-29T10:27:39.132Z,8.90
2022-11-29T10:30:14.049Z,8.80
2022-11-29T10:32:43.353Z,8.80
2022-11-29T10:35:14.841Z,8.90
2022-11-29T10:38:01.358Z,8.80
2022-11-29T10:40:36.129Z,8.90
2022-11-29T10:43:04.811Z,8.90
2022-11-29T10:45:35.324Z,8.90
2022-11-29T10:48:05.613Z,8.90
2022-11-29T10:50:35.764Z,8.90
2022-11-29T10:53:08.773Z,8.90
2022-11-29T10:55:44.474Z,8.90
2022-11-29T10:58:16.173Z,9.00
2022-11-29T11:00:47.257Z,9.00
2022-11-29T11:03:18.377Z,9.00
2022-11-29T11:05:59.006Z,9.00
2022-11-29T11:08:29.673Z,9.00
2022-11-29T11:11:01.848Z,9.10
2022-11-29T11:13:32.063Z,9.10
2022-11-29T11:16:09.131Z,9.00
2022-11-29T11:18:38.317Z,9.10
2022-11-29T11:21:11.168Z,9.10
2022-11-29T11:23:46.487Z,9.10
2022-11-29T11:26:15.764Z,9.10
2022-11-29T11:28:50.393Z,9.10
2022-11-29T11:31:28.633Z,9.10
2022-11-29T11:33:57.193Z,9.10
2022-11-29T11:36:27.330Z,9.10
2022-11-29T11:39:11.551Z,9.10
2022-11-29T11:41:59.810Z,9.10
2022-11-29T11:44:53.601Z,9.10
2022-11-29T11:47:25.258Z,9.10
2022-11-29T11:49:57.517Z,9.20
2022-11-29T11:52:28.672Z,9.20
2022-11-29T11:55:01.009Z,9.20
2022-11-29T11:57:29.578Z,9.20
2022-11-29T12:00:04.994Z,9.20
2022-11-29T12:02:38.839Z,9.20
2022-11-29T12:05:14.286Z,9.20
2022-11-29T12:10:40.377Z,9.20
2022-11-29T12:13:17.787Z,9.20
2022-11-29T12:15:48.199Z,9.20
2022-11-29T12:18:22.106Z,9.20
2022-11-29T12:20:56.962Z,9.20
2022-11-29T12:23:32.125Z,9.20
2022-11-29T12:26:07.552Z,9.20
2022-11-29T12:28:39.267Z,9.20
2022-11-29T12:31:15.677Z,9.20
2022-11-29T12:33:50.766Z,9.20
2022-11-29T12:36:30.456Z,9.20
2022-11-29T12:39:18.238Z,9.20
2022-11-29T12:41:55.408Z,9.20
2022-11-29T12:44:33.295Z,9.20
2022-11-29T12:47:34.652Z,9.20
2022-11-29T12:50:05.052Z,9.30
2022-11-29T12:52:41.758Z,9.30
2022-11-29T12:55:20.731Z,9.30
2022-11-29T12:58:02.262Z,9.30
2022-11-29T13:00:35.721Z,9.30
2022-11-29T13:03:13.946Z,9.40
2022-11-29T13:05:55.107Z,9.40
2022-11-29T13:08:48.241Z,9.40
2022-11-29T13:11:23.050Z,9.40
2022-11-29T13:14:13.785Z,9.40
2022-11-29T13:16:54.131Z,9.40
2022-11-29T13:19:30.652Z,9.40
2022-11-29T13:22:09.652Z,9.40
2022-11-29T13:24:43.254Z,9.40
2022-11-29T13:27:16.921Z,9.40
2022-11-29T13:29:47.256Z,9.40
2022-11-29T13:32:30.632Z,9.50
2022-11-29T13:35:03.737Z,9.50
2022-11-29T13:37:36.832Z,9.50
2022-11-29T13:40:19.449Z,9.50
2022-11-29T13:42:51.427Z,9.50
2022-11-29T13:45:26.360Z,9.50
2022-11-29T13:47:56.022Z,9.60
2022-11-29T13:50:44.033Z,9.60
2022-11-29T13:53:15.866Z,9.60
2022-11-29T13:55:49.055Z,9.60
2022-11-29T13:58:38.029Z,9.60
2022-11-29T14:01:11.757Z,9.60
2022-11-29T14:03:41.684Z,9.60
2022-11-29T14:06:15.825Z,9.60
2022-11-29T14:09:20.010Z,9.60
2022-11-29T14:11:51.845Z,9.70
2022-11-29T14:14:26.450Z,9.70
2022-11-29T14:16:58.910Z,9.70
2022-11-29T14:19:33.376Z,9.70
2022-11-29T14:22:19.380Z,9.70
2022-11-29T14:25:00.675Z,9.80
2022-11-29T14:27:58.593Z,9.70
2022-11-29T14:30:40.604Z,9.70
2022-11-29T14:33:26.881Z,9.80
2022-11-29T14:36:09.141Z,9.80
2022-11-29T14:38:45.118Z,9.80
2022-11-29T14:41:21.717Z,9.80
2022-11-29T14:43:49.759Z,9.90
2022-11-29T14:46:29.429Z,9.90
2022-11-29T14:49:04.108Z,9.90
2022-11-29T14:51:33.827Z,9.90
2022-11-29T14:54:08.982Z,9.90
2022-11-29T14:56:42.242Z,9.90
2022-11-29T14:59:43.304Z,9.90
2022-11-29T15:02:27.727Z,9.90
2022-11-29T15:04:58.542Z,9.90
2022-11-29T15:07:30.205Z,9.90
2022-11-29T15:10:01.628Z,9.90
2022-11-29T15:12:35.749Z,9.90
2022-11-29T15:15:13.970Z,9.90
2022-11-29T15:17:51.953Z,9.90
2022-11-29T15:20:38.510Z,9.90
2022-11-29T15:23:10.606Z,9.90
2022-11-29T15:25:48.274Z,9.90
2022-11-29T15:28:22.561Z,9.90
2022-11-29T15:31:00.934Z,9.90
2022-11-29T15:33:29.854Z,9.80
2022-11-29T15:36:08.209Z,9.80
2022-11-29T15:38:43.307Z,9.80
2022-11-29T15:41:22.828Z,9.80
2022-11-29T15:43:54.274Z,9.80
2022-11-29T15:46:26.801Z,9.80
2022-11-29T15:48:55.001Z,9.70
2022-11-29T15:51:29.457Z,9.70
2022-11-29T15:54:12.906Z,9.70
2022-11-29T15:56:46.609Z,9.70
2022-11-29T15:59:21.187Z,9.60
2022-11-29T16:01:52.825Z,9.60
2022-11-29T16:04:22.524Z,9.60
2022-11-29T16:06:52.748Z,9.60
2022-11-29T16:09:26.580Z,9.60
2022-11-29T16:11:54.585Z,9.60
2022-11-29T16:14:24.921Z,9.60
2022-11-29T16:16:55.389Z,9.50
2022-11-29T16:19:30.258Z,9.50
2022-11-29T16:22:09.588Z,9.50
2022-11-29T16:24:38.868Z,9.50
2022-11-29T16:27:08.472Z,9.50
2022-11-29T16:29:39.193Z,9.50
2022-11-29T16:32:15.864Z,9.50
2022-11-29T16:34:44.891Z,9.50
2022-11-29T16:37:20.030Z,9.50
2022-11-29T16:39:50.989Z,9.50
2022-11-29T16:42:26.230Z,9.50
2022-11-29T16:45:05.607Z,9.50
2022-11-29T16:47:47.228Z,9.50
2022-11-29T16:50:18.758Z,9.50
2022-11-29T16:52:54.835Z,9.50
2022-11-29T16:55:24.794Z,9.50
2022-11-29T16:57:53.145Z,9.60
2022-11-29T17:00:29.634Z,9.50
2022-11-29T17:02:57.686Z,9.60
2022-11-29T17:05:25.968Z,9.50
2022-11-29T17:07:55.624Z,9.60
2022-11-29T17:10:26.568Z,9.60
2022-11-29T17:12:54.522Z,9.60
2022-11-29T17:15:22.510Z,9.60
2022-11-29T17:17:50.500Z,9.60
2022-11-29T17:20:18.496Z,9.60
2022-11-29T17:22:46.384Z,9.60
2022-11-29T17:25:15.613Z,9.60
2022-11-29T17:27:43.487Z,9.60
2022-11-29T17:30:12.238Z,9.60
2022-11-29T17:32:40.115Z,9.60
2022-11-29T17:35:08.452Z,9.60
2022-11-29T17:37:36.428Z,9.60
2022-11-29T17:40:04.605Z,9.60
2022-11-29T17:42:33.931Z,9.60
2022-11-29T17:45:01.858Z,9.60
2022-11-29T17:47:29.754Z,9.60
2022-11-29T17:49:58.062Z,9.60
2022-11-29T17:52:26.393Z,9.70
2022-11-29T17:54:54.242Z,9.70
2022-11-29T17:57:22.073Z,9.70
2022-11-29T17:59:51.341Z,9.70
2022-11-29T18:02:19.248Z,9.70
2022-11-29T18:04:47.188Z,9.70
2022-11-29T18:07:17.180Z,9.70
2022-11-29T18:09:46.689Z,9.70
2022-11-29T18:12:14.898Z,9.70
2022-11-29T18:14:42.777Z,9.70
2022-11-29T18:17:12.029Z,9.70
2022-11-29T18:19:39.916Z,9.70
2022-11-29T18:22:08.431Z,9.70
2022-11-29T18:24:36.430Z,9.70
2022-11-29T18:27:04.480Z,9.70
2022-11-29T18:29:38.268Z,9.70
2022-11-29T18:32:07.095Z,9.70
2022-11-29T18:34:36.422Z,9.60
2022-11-29T18:37:04.346Z,9.60
2022-11-29T18:39:32.264Z,9.70
2022-11-29T18:42:00.176Z,9.70
2022-11-29T18:44:30.146Z,9.60
2022-11-29T18:46:58.713Z,9.70
2022-11-29T18:49:26.620Z,9.70
2022-11-29T18:51:55.892Z,9.70
2022-11-29T18:54:23.707Z,9.70
2022-11-29T18:56:52.692Z,9.70
2022-11-29T18:59:22.016Z,9.60
2022-11-29T19:01:50.067Z,9.70
2022-11-29T19:04:19.739Z,9.70
2022-11-29T19:06:47.871Z,9.70
2022-11-29T19:09:19.350Z,9.70
2022-11-29T19:11:48.613Z,9.70
2022-11-29T19:14:16.607Z,9.70
2022-11-29T19:16:47.343Z,9.70
2022-11-29T19:19:15.252Z,9.70
2022-11-29T19:21:43.135Z,9.70
2022-11-29T19:24:17.877Z,9.60
2022-11-29T19:26:48.853Z,9.60
2022-11-29T19:29:17.656Z,9.60
2022-11-29T19:31:45.704Z,9.60
2022-11-29T19:34:13.668Z,9.60
2022-11-29T19:36:44.405Z,9.60
2022-11-29T19:39:14.009Z,9.60
2022-11-29T19:41:43.232Z,9.60
2022-11-29T19:44:13.452Z,9.50
2022-11-29T19:46:43.970Z,9.50
2022-11-29T19:49:12.613Z,9.50
2022-11-29T19:51:40.529Z,9.50
2022-11-29T19:54:09.824Z,9.50
2022-11-29T19:56:38.159Z,9.50
2022-11-29T19:59:07.826Z,9.50
2022-11-29T20:01:41.451Z,9.40
2022-11-29T20:04:11.451Z,9.30
2022-11-29T20:06:39.830Z,9.20
2022-11-29T20:09:07.948Z,9.20
2022-11-29T20:11:36.209Z,9.10
2022-11-29T20:14:06.370Z,9.10
2022-11-29T20:16:37.787Z,9.00
2022-11-29T20:19:10.716Z,9.00
2022-11-29T20:21:42.257Z,9.00
2022-11-29T20:24:10.386Z,9.00
2022-11-29T20:26:39.738Z,9.00
2022-11-29T20:29:09.407Z,9.00
2022-11-29T20:31:45.982Z,8.90
2022-11-29T20:34:17.533Z,8.90
2022-11-29T20:37:18.793Z,8.80
2022-11-29T20:39:53.971Z,8.80
2022-11-29T20:42:43.921Z,8.80
2022-11-29T20:45:13.551Z,8.80
2022-11-29T20:47:50.175Z,8.70
2022-11-29T20:50:23.226Z,8.70
2022-11-29T20:53:05.015Z,8.60
2022-11-29T20:55:32.937Z,8.60
2022-11-29T20:58:00.932Z,8.60
2022-11-29T21:00:28.812Z,8.60
2022-11-29T21:02:58.057Z,8.60
2022-11-29T21:05:26.253Z,8.60
2022-11-29T21:07:54.300Z,8.60
2022-11-29T21:10:22.554Z,8.60
2022-11-29T21:12:50.927Z,8.60
2022-11-29T21:15:19.691Z,8.60
2022-11-29T21:17:48.069Z,8.60
2022-11-29T21:20:22.555Z,8.60
2022-11-29T21:22:56.803Z,8.60
2022-11-29T21:25:33.334Z,8.60
2022-11-29T21:28:02.197Z,8.60
2022-11-29T21:30:30.353Z,8.60
2022-11-29T21:32:58.744Z,8.60
2022-11-29T21:35:28.035Z,8.60
2022-11-29T21:38:00.458Z,8.50
2022-11-29T21:40:29.002Z,8.60
2022-11-29T21:42:56.969Z,8.60
2022-11-29T21:45:24.872Z,8.70
2022-11-29T21:47:52.812Z,8.70
2022-11-29T21:50:20.682Z,8.60
2022-11-29T21:52:52.366Z,8.60
2022-11-29T21:55:20.252Z,8.60
2022-11-29T21:57:48.137Z,8.60
2022-11-29T22:00:16.918Z,8.50
2022-11-29T22:02:44.873Z,8.50
2022-11-29T22:05:12.850Z,8.50
2022-11-29T22:07:40.753Z,8.50
2022-11-29T22:10:13.500Z,8.50
2022-11-29T22:12:51.215Z,8.50
2022-11-29T22:15:24.398Z,8.50
2022-11-29T22:17:53.153Z,8.50
2022-11-29T22:20:21.324Z,8.50
2022-11-29T22:22:49.311Z,8.50
2022-11-29T22:25:18.783Z,8.50
2022-11-29T22:27:46.670Z,8.50
2022-11-29T22:30:14.853Z,8.50
2022-11-29T22:32:42.694Z,8.60
2022-11-29T22:35:10.753Z,8.50
2022-11-29T22:37:38.695Z,8.60
2022-11-29T22:40:08.116Z,8.60
2022-11-29T22:42:37.306Z,8.60
2022-11-29T22:45:05.673Z,8.60
2022-11-29T22:47:33.532Z,8.60
2022-11-29T22:50:01.648Z,8.60
2022-11-29T22:52:29.553Z,8.60
2022-11-29T22:55:02.882Z,8.60
2022-11-29T22:57:32.500Z,8.70
2022-11-29T23:00:01.764Z,8.70
2022-11-29T23:02:29.721Z,8.80
2022-11-29T23:04:57.650Z,8.80
2022-11-29T23:07:25.772Z,8.90
2022-11-29T23:09:55.092Z,8.90
2022-11-29T23:12:23.053Z,8.90
2022-11-29T23:14:56.137Z,8.80
2022-11-29T23:17:25.841Z,8.80
2022-11-29T23:19:53.740Z,8.80
2022-11-29T23:22:21.744Z,8.80
2022-11-29T23:24:49.633Z,8.90
2022-11-29T23:27:17.442Z,8.90
2022-11-29T23:29:45.370Z,8.90
2022-11-29T23:32:13.215Z,8.90
2022-11-29T23:34:42.391Z,8.90
2022-11-29T23:37:10.268Z,8.80
2022-11-29T23:39:38.116Z,8.80
2022-11-29T23:42:06.373Z,8.80
2022-11-29T23:44:34.224Z,8.80
2022-11-29T23:47:02.029Z,8.80
2022-11-29T23:49:29.905Z,8.80
2022-11-29T23:51:59.108Z,8.80
2022-11-29T23:54:26.998Z,8.80
2022-11-29T23:56:54.910Z,8.80
2022-11-29T23:59:22.821Z,8.80
